Time;durP1;ratioP1;P1;durP2;ratioP2;P2;SDS_P1;SDS_P2;PMS_P1;PMS_P2;Temp;Humidity;BMP_temperature;BMP_pressure;BME280_temperature;BME280_humidity;BME280_pressure;Samples;Min_cycle;Max_cycle;Signal;HPM_P1;HPM_P2
2023/12/03 00:04:36;;;;;;;11.03;8.17;;;;;;;-0.99;76.57;99649.91;7246508;40;20784;31
2023/12/03 00:10:08;;;;;;;9.75;7.60;;;;;;;-1.00;76.73;99657.91;7208847;40;20784;31
2023/12/03 00:15:44;;;;;;;8.90;6.70;;;;;;;-1.05;75.22;99649.38;7210525;40;20873;31
2023/12/03 00:21:19;;;;;;;12.10;7.50;;;;;;;-1.24;75.83;99660.09;7226226;40;21059;31
2023/12/03 00:26:54;;;;;;;11.20;7.83;;;;;;;-1.33;76.40;99660.59;7248306;40;20237;31
2023/12/03 00:32:30;;;;;;;10.10;7.70;;;;;;;-1.40;76.93;99659.19;7245787;40;21068;31
2023/12/03 00:43:09;;;;;;;11.10;7.73;;;;;;;-1.43;76.31;99669.94;7233413;40;20267;31
2023/12/03 00:53:49;;;;;;;12.10;8.70;;;;;;;-1.53;76.26;99679.25;7266102;40;20411;31
2023/12/03 01:04:28;;;;;;;11.00;8.20;;;;;;;-1.73;76.67;99692.66;7228801;40;20259;31
2023/12/03 01:10:02;;;;;;;11.00;7.30;;;;;;;-1.66;77.41;99691.41;7238177;40;20358;31
2023/12/03 01:15:20;;;;;;;14.10;8.00;;;;;;;-1.55;77.07;99691.72;7224746;40;20741;31
2023/12/03 01:26:00;;;;;;;11.23;8.37;;;;;;;-1.46;76.94;99692.09;7228430;40;20503;31
2023/12/03 01:36:22;;;;;;;11.77;8.57;;;;;;;-1.32;77.25;99703.75;7205747;40;20264;31
2023/12/03 01:41:59;;;;;;;11.13;8.17;;;;;;;-1.31;77.92;99708.94;7297459;40;20241;31
2023/12/03 01:47:34;;;;;;;11.60;8.30;;;;;;;-1.32;77.91;99709.91;7314114;39;20707;31
2023/12/03 01:53:09;;;;;;;11.15;8.35;;;;;;;-1.36;77.68;99711.81;7299935;39;20804;31
2023/12/03 01:58:45;;;;;;;12.10;8.35;;;;;;;-1.46;77.04;99718.53;7249037;40;20788;31
2023/12/03 02:04:05;;;;;;;14.40;9.90;;;;;;;-1.40;77.12;99717.34;7165087;40;20262;31
2023/12/03 02:09:41;;;;;;;16.10;9.30;;;;;;;-1.42;78.20;99719.22;7150073;40;20225;31
2023/12/03 02:15:15;;;;;;;14.83;8.93;;;;;;;-1.41;77.49;99728.88;7204106;40;20477;31
2023/12/03 02:20:35;;;;;;;13.13;9.17;;;;;;;-1.42;77.44;99745.66;7223575;40;20360;31
2023/12/03 02:26:12;;;;;;;11.77;9.13;;;;;;;-1.53;77.59;99738.25;7229444;40;20253;31
2023/12/03 02:31:47;;;;;;;13.70;9.20;;;;;;;-1.50;76.90;99742.56;7246909;40;20351;31
2023/12/03 02:37:22;;;;;;;14.00;9.27;;;;;;;-1.53;77.76;99746.19;7300176;39;20870;31
2023/12/03 02:48:02;;;;;;;15.20;9.80;;;;;;;-1.46;77.51;99742.31;7258448;40;20282;31
2023/12/03 02:58:41;;;;;;;14.50;10.30;;;;;;;-1.48;77.51;99741.53;7187118;40;20359;31
2023/12/03 03:04:15;;;;;;;14.70;10.40;;;;;;;-1.48;77.42;99740.69;7258400;40;20687;31
2023/12/03 03:09:35;;;;;;;16.13;10.50;;;;;;;-1.36;77.45;99745.31;7235490;39;20382;31
2023/12/03 03:14:56;;;;;;;14.20;10.37;;;;;;;-1.38;77.10;99756.00;7279065;40;20244;31
2023/12/03 03:20:26;;;;;;;14.00;9.45;;;;;;;-1.38;76.56;99750.72;7250510;40;20365;31
2023/12/03 03:25:52;;;;;;;15.63;10.10;;;;;;;-1.42;77.03;99754.44;7224116;40;20454;31
2023/12/03 03:31:10;;;;;;;19.67;11.27;;;;;;;-1.48;76.65;99769.75;7232642;40;20346;31
2023/12/03 03:36:45;;;;;;;16.20;10.10;;;;;;;-1.46;76.44;99758.19;7256599;40;20257;31
2023/12/03 03:47:25;;;;;;;17.05;11.20;;;;;;;-1.60;75.94;99771.22;7288796;39;20339;31
2023/12/03 03:52:58;;;;;;;17.30;10.93;;;;;;;-1.52;76.46;99770.84;7249939;40;20263;31
2023/12/03 04:03:34;;;;;;;16.45;10.85;;;;;;;-1.38;76.21;99774.50;7256667;40;20447;31
2023/12/03 04:09:10;;;;;;;18.03;11.27;;;;;;;-1.37;76.33;99783.28;7264987;40;20817;31
2023/12/03 04:14:45;;;;;;;16.20;10.50;;;;;;;-1.43;76.66;99797.66;7215339;40;20751;31
2023/12/03 04:20:16;;;;;;;15.50;10.00;;;;;;;-1.39;76.11;99809.78;7207662;40;20235;31
2023/12/03 04:25:52;;;;;;;16.15;10.80;;;;;;;-1.40;75.83;99807.22;7170747;40;20759;31
2023/12/03 04:31:27;;;;;;;19.20;10.30;;;;;;;-1.54;75.44;99809.72;7204095;40;20931;31
2023/12/03 04:37:03;;;;;;;16.17;10.70;;;;;;;-1.57;76.15;99816.00;7228662;40;20836;31
2023/12/03 04:42:39;;;;;;;15.30;10.70;;;;;;;-1.65;76.71;99812.88;7180857;40;20767;31
2023/12/03 04:47:59;;;;;;;17.00;10.60;;;;;;;-1.55;76.23;99815.94;6983468;40;21336;31
2023/12/03 04:53:19;;;;;;;16.85;10.95;;;;;;;-1.55;76.76;99824.72;7188065;40;20885;31
2023/12/03 04:58:53;;;;;;;16.50;11.00;;;;;;;-1.60;77.09;99832.00;7224911;40;22085;31
2023/12/03 05:09:15;;;;;;;16.80;10.05;;;;;;;-1.53;76.03;99837.84;7204143;40;20246;31
2023/12/03 05:14:51;;;;;;;18.40;10.60;;;;;;;-1.62;77.30;99836.50;7248374;40;20702;31
2023/12/03 05:20:24;;;;;;;14.77;9.77;;;;;;;-1.66;76.71;99824.38;7231673;40;21011;31
2023/12/03 05:25:44;;;;;;;16.50;10.60;;;;;;;-1.66;77.57;99818.22;7241535;40;20253;31
2023/12/03 05:31:22;;;;;;;15.90;9.50;;;;;;;-1.71;77.52;99812.34;7249692;40;20272;31
2023/12/03 05:36:55;;;;;;;19.90;10.90;;;;;;;-1.65;77.49;99815.53;7228834;40;20253;31
2023/12/03 05:42:30;;;;;;;15.70;10.30;;;;;;;-1.71;76.43;99812.34;7226132;40;20911;31
2023/12/03 05:48:06;;;;;;;17.70;10.90;;;;;;;-1.73;76.46;99815.03;7245326;40;20301;31
2023/12/03 05:53:23;;;;;;;15.10;10.47;;;;;;;-1.67;77.70;99814.75;7196634;40;20933;31
2023/12/03 05:58:44;;;;;;;15.33;10.57;;;;;;;-1.57;77.09;99815.12;7216058;40;20237;31
2023/12/03 06:04:19;;;;;;;16.53;11.10;;;;;;;-1.56;76.91;99809.78;7235570;40;20624;31
2023/12/03 06:09:51;;;;;;;14.75;10.15;;;;;;;-1.49;77.61;99811.19;7218040;40;20946;31
2023/12/03 06:15:09;;;;;;;15.40;10.55;;;;;;;-1.42;76.90;99830.25;7235067;40;20357;31
2023/12/03 06:20:43;;;;;;;14.17;9.50;;;;;;;-1.46;77.00;99824.25;7226259;40;20254;31
2023/12/03 06:26:03;;;;;;;18.77;12.10;;;;;;;-1.50;76.65;99829.78;7159211;40;20276;31
2023/12/03 06:36:45;;;;;;;18.13;11.93;;;;;;;-1.44;76.96;99848.81;7223577;40;20246;31
2023/12/03 06:42:02;;;;;;;30.55;16.60;;;;;;;-1.48;76.48;99849.03;7222725;40;20719;31
2023/12/03 06:47:38;;;;;;;25.63;14.47;;;;;;;-1.49;76.67;99849.97;7284896;39;20326;31
2023/12/03 06:53:12;;;;;;;17.93;11.63;;;;;;;-1.47;77.05;99848.97;7216641;40;20261;31
2023/12/03 06:58:29;;;;;;;15.70;10.37;;;;;;;-1.36;77.04;99854.56;7192581;40;20679;31
2023/12/03 07:04:02;;;;;;;17.57;11.20;;;;;;;-1.53;76.43;99840.47;7196051;40;20354;31
2023/12/03 07:14:42;;;;;;;17.90;10.90;;;;;;;-1.54;76.78;99867.84;7163689;40;20415;31
2023/12/03 07:20:18;;;;;;;15.45;10.35;;;;;;;-1.55;76.21;99855.56;7245349;40;20260;31
2023/12/03 07:25:53;;;;;;;15.40;10.60;;;;;;;-1.51;76.58;99865.06;7218517;40;20257;31
2023/12/03 07:31:30;;;;;;;16.50;10.10;;;;;;;-1.61;76.71;99869.06;7169133;40;20887;31
2023/12/03 07:37:04;;;;;;;15.10;10.70;;;;;;;-1.59;76.48;99872.50;7160059;40;20967;31
2023/12/03 07:42:40;;;;;;;13.57;9.57;;;;;;;-1.61;76.69;99880.50;7118831;40;20739;31
2023/12/03 07:48:17;;;;;;;22.70;12.70;;;;;;;-1.56;76.29;99881.13;7108515;40;20918;31
2023/12/03 07:53:52;;;;;;;22.73;13.80;;;;;;;-1.54;77.20;99902.22;7099099;41;20683;31
2023/12/03 07:59:12;;;;;;;18.20;11.95;;;;;;;-1.54;76.86;99910.16;7124161;40;20814;31
2023/12/03 08:04:48;;;;;;;15.35;10.50;;;;;;;-1.53;75.79;99902.13;7204418;40;20239;31
2023/12/03 08:10:23;;;;;;;15.63;10.47;;;;;;;-1.46;76.70;99910.63;7224625;40;20751;31
2023/12/03 08:15:58;;;;;;;17.13;11.23;;;;;;;-1.31;76.22;99919.59;7250159;40;20719;31
2023/12/03 08:21:36;;;;;;;18.03;11.07;;;;;;;-1.35;76.87;99910.94;7158572;40;20242;31
2023/12/03 08:27:10;;;;;;;16.40;11.30;;;;;;;-1.32;76.82;99902.03;7167341;40;20266;31
2023/12/03 08:32:45;;;;;;;19.37;11.90;;;;;;;-1.27;76.08;99900.84;7107131;40;20811;31
2023/12/03 08:38:21;;;;;;;17.93;11.37;;;;;;;-1.29;76.53;99893.94;7159955;40;20857;31
2023/12/03 08:49:15;;;;;;;17.30;11.15;;;;;;;-1.21;76.35;99905.84;7203448;40;20351;31
2023/12/03 08:54:51;;;;;;;16.03;10.53;;;;;;;-1.07;75.79;99905.16;7184688;40;20302;31
2023/12/03 09:05:17;;;;;;;17.07;10.70;;;;;;;-1.05;75.41;99917.37;7177692;40;20262;31
2023/12/03 09:10:51;;;;;;;16.93;11.63;;;;;;;-1.04;75.76;99911.16;7222046;40;20241;31
2023/12/03 09:16:09;;;;;;;18.90;11.87;;;;;;;-0.92;75.95;99914.97;7219242;40;20242;31
2023/12/03 09:21:30;;;;;;;16.40;10.47;;;;;;;-0.87;75.60;99912.09;7238076;40;20254;31
2023/12/03 09:27:01;;;;;;;17.57;9.97;;;;;;;-0.89;74.78;99911.31;7231753;40;20287;31
2023/12/03 09:37:26;;;;;;;20.20;10.30;;;;;;;-0.78;74.17;99928.34;7243860;40;20477;31
2023/12/03 09:48:04;;;;;;;23.60;15.00;;;;;;;-0.63;75.17;99917.00;7252000;39;20273;31
2023/12/03 09:53:39;;;;;;;16.17;10.80;;;;;;;-0.57;74.69;99916.66;7297892;40;20306;31
2023/12/03 09:59:14;;;;;;;36.95;21.10;;;;;;;-0.55;74.05;99908.66;7329610;39;20237;31
2023/12/03 10:04:50;;;;;;;22.17;15.00;;;;;;;-0.53;74.20;99902.34;7258289;39;20341;31
2023/12/03 10:10:25;;;;;;;14.80;10.20;;;;;;;-0.40;74.13;99901.72;7257703;40;20246;31
2023/12/03 10:15:46;;;;;;;14.17;9.47;;;;;;;-0.34;74.04;99907.53;7156087;40;20324;31
2023/12/03 10:21:24;;;;;;;12.30;8.27;;;;;;;-0.35;73.15;99895.22;7189781;40;20797;31
2023/12/03 10:27:04;;;;;;;12.75;8.45;;;;;;;-0.27;72.88;99890.41;7241171;40;20244;31
2023/12/03 10:32:38;;;;;;;14.20;8.90;;;;;;;-0.11;73.23;99896.56;7285514;40;20233;31
2023/12/03 10:38:10;;;;;;;13.07;8.87;;;;;;;0.00;73.47;99888.06;7186969;40;20328;31
2023/12/03 10:43:45;;;;;;;13.10;9.10;;;;;;;0.16;72.79;99896.00;7190274;40;20247;31
2023/12/03 10:49:20;;;;;;;13.30;9.00;;;;;;;0.20;72.65;99877.22;7207815;40;20865;31
2023/12/03 10:54:56;;;;;;;11.60;8.30;;;;;;;0.28;72.15;99860.88;7171460;40;20230;31
2023/12/03 11:00:33;;;;;;;13.80;9.05;;;;;;;0.40;72.17;99871.63;7232007;40;20234;31
2023/12/03 11:06:07;;;;;;;12.80;9.40;;;;;;;0.44;72.49;99859.91;7239247;40;20334;31
2023/12/03 11:11:44;;;;;;;31.40;20.45;;;;;;;0.47;72.30;99861.56;7255834;40;20234;31
2023/12/03 11:17:22;;;;;;;16.20;10.60;;;;;;;0.53;72.08;99850.56;7247911;40;20334;31
2023/12/03 11:22:57;;;;;;;13.00;9.30;;;;;;;0.61;72.49;99847.50;7197219;40;20244;31
2023/12/03 11:28:34;;;;;;;16.00;10.50;;;;;;;0.68;73.04;99847.06;7179595;40;20252;31
2023/12/03 11:34:11;;;;;;;20.33;13.07;;;;;;;0.73;72.39;99838.84;7203948;40;20247;31
2023/12/03 11:39:33;;;;;;;21.15;12.05;;;;;;;0.72;72.21;99842.41;6976340;40;21294;31
2023/12/03 11:45:02;;;;;;;19.55;13.00;;;;;;;0.73;72.36;99826.44;7224585;39;20457;31
2023/12/03 11:50:34;;;;;;;19.10;11.80;;;;;;;0.83;72.44;99829.41;7188083;40;20232;31
2023/12/03 11:56:06;;;;;;;17.10;12.10;;;;;;;0.87;72.70;99815.88;7208631;40;20228;31
2023/12/03 12:01:40;;;;;;;14.90;10.15;;;;;;;1.05;72.55;99821.03;7219261;40;20465;31
2023/12/03 12:06:57;;;;;;;16.00;10.70;;;;;;;1.07;72.42;99816.47;7248700;40;20288;31
2023/12/03 12:12:33;;;;;;;15.40;10.40;;;;;;;1.06;71.78;99814.75;7259071;40;20814;31
2023/12/03 12:18:10;;;;;;;13.47;9.47;;;;;;;1.18;71.87;99811.37;7220825;40;20235;31
2023/12/03 12:23:28;;;;;;;13.20;9.40;;;;;;;1.35;72.08;99813.84;7212479;40;20254;31
2023/12/03 12:29:04;;;;;;;13.97;10.13;;;;;;;1.42;71.31;99806.34;7239068;40;20352;31
2023/12/03 12:34:39;;;;;;;13.03;10.07;;;;;;;1.50;70.44;99801.41;7200947;40;20248;31
2023/12/03 12:40:21;;;;;;;14.15;10.00;;;;;;;1.57;70.54;99795.66;7197766;40;20289;31
2023/12/03 12:45:41;;;;;;;19.40;13.70;;;;;;;1.63;70.83;99795.25;7178330;40;20243;31
2023/12/03 12:51:18;;;;;;;16.05;11.25;;;;;;;1.55;70.94;99805.50;7195526;40;20330;31
2023/12/03 12:56:54;;;;;;;22.83;14.70;;;;;;;1.48;70.57;99800.69;7226931;40;21452;31
2023/12/03 13:02:32;;;;;;;19.70;13.10;;;;;;;1.39;71.56;99799.44;7207310;40;20314;31
2023/12/03 13:08:04;;;;;;;17.70;11.20;;;;;;;1.34;71.60;99798.88;7217170;40;20231;31
2023/12/03 13:13:40;;;;;;;15.97;10.90;;;;;;;1.31;72.08;99802.56;7232314;40;20236;31
2023/12/03 13:24:21;;;;;;;16.03;11.47;;;;;;;1.27;72.34;99789.59;7256199;40;20262;31
2023/12/03 13:29:41;;;;;;;18.73;12.13;;;;;;;1.32;72.20;99784.81;7237094;40;20250;31
2023/12/03 13:35:16;;;;;;;19.10;13.00;;;;;;;1.23;72.41;99766.78;7264339;40;20339;31
2023/12/03 13:40:53;;;;;;;21.60;13.53;;;;;;;1.22;72.54;99757.16;7257812;40;20241;31
2023/12/03 13:46:12;;;;;;;36.35;19.65;;;;;;;1.30;72.65;99750.41;7191165;40;20258;31
2023/12/03 13:51:48;;;;;;;24.60;14.15;;;;;;;1.28;72.44;99749.63;7216110;40;20250;31
2023/12/03 13:57:24;;;;;;;23.80;15.20;;;;;;;1.19;72.21;99746.69;7215126;40;20371;31
2023/12/03 14:02:46;;;;;;;18.60;12.30;;;;;;;1.22;73.02;99759.81;7237346;40;20308;31
2023/12/03 14:08:06;;;;;;;20.67;13.07;;;;;;;1.21;72.62;99760.75;7245988;40;20274;31
2023/12/03 14:13:41;;;;;;;16.15;10.15;;;;;;;1.12;71.93;99745.38;7221261;40;20254;31
2023/12/03 14:18:59;;;;;;;43.60;23.13;;;;;;;1.11;72.75;99748.97;7211483;40;20246;31
2023/12/03 14:24:34;;;;;;;22.17;13.60;;;;;;;1.05;72.94;99742.25;7198162;40;20320;31
2023/12/03 14:30:09;;;;;;;19.40;12.57;;;;;;;1.09;73.22;99742.91;7200851;40;20303;31
2023/12/03 14:35:26;;;;;;;18.30;11.50;;;;;;;1.06;73.40;99743.94;7248667;40;20266;31
2023/12/03 14:41:02;;;;;;;15.60;11.35;;;;;;;0.98;73.96;99742.69;7214211;40;20368;31
2023/12/03 14:46:35;;;;;;;18.43;12.03;;;;;;;0.94;73.73;99749.16;7218204;40;20291;31
2023/12/03 14:51:52;;;;;;;17.75;11.95;;;;;;;1.02;73.83;99744.22;7225651;40;20276;31
2023/12/03 15:02:33;;;;;;;18.90;12.67;;;;;;;0.99;73.94;99737.31;7287793;39;20340;31
2023/12/03 15:08:05;;;;;;;18.40;12.10;;;;;;;0.99;74.43;99742.63;7245723;40;20256;31
2023/12/03 15:13:23;;;;;;;16.73;10.93;;;;;;;1.01;74.98;99753.16;7217286;40;20224;31
2023/12/03 15:18:59;;;;;;;18.97;12.53;;;;;;;1.01;74.43;99745.19;7219744;40;20387;31
2023/12/03 15:24:34;;;;;;;14.97;10.30;;;;;;;1.02;74.26;99733.59;7205518;40;20346;31
2023/12/03 15:30:09;;;;;;;14.73;10.93;;;;;;;0.97;74.76;99738.34;7193210;40;20316;31
2023/12/03 15:35:43;;;;;;;16.13;11.30;;;;;;;0.97;74.67;99725.94;7188382;40;20259;31
2023/12/03 15:46:22;;;;;;;14.70;10.77;;;;;;;0.92;74.70;99732.47;7226672;40;20273;31
2023/12/03 15:51:59;;;;;;;21.07;12.30;;;;;;;0.93;75.34;99739.47;7270430;40;20802;31
2023/12/03 15:57:19;;;;;;;27.73;15.70;;;;;;;0.97;75.43;99743.63;7294787;39;20245;31
2023/12/03 16:02:57;;;;;;;23.25;13.15;;;;;;;0.87;75.21;99738.94;7257157;40;20252;31
2023/12/03 16:08:30;;;;;;;16.90;11.37;;;;;;;0.70;74.99;99736.41;7251087;40;20687;31
2023/12/03 16:13:50;;;;;;;13.27;9.67;;;;;;;0.61;75.08;99739.63;7277210;39;20685;31
2023/12/03 16:19:12;;;;;;;13.07;8.97;;;;;;;0.60;74.77;99726.44;7260079;39;20337;31
2023/12/03 16:24:47;;;;;;;12.45;8.90;;;;;;;0.52;75.35;99726.06;7238936;40;20246;31
2023/12/03 16:30:24;;;;;;;14.00;9.05;;;;;;;0.43;75.23;99738.91;7271883;39;20893;31
2023/12/03 16:35:56;;;;;;;12.80;9.10;;;;;;;0.39;75.73;99734.75;7225588;40;20230;31
2023/12/03 16:41:33;;;;;;;12.47;8.73;;;;;;;0.30;75.98;99739.72;7222364;40;20381;31
2023/12/03 16:47:09;;;;;;;14.50;9.10;;;;;;;0.22;75.20;99721.59;7225355;40;20257;31
2023/12/03 16:52:30;;;;;;;12.45;9.00;;;;;;;0.14;76.25;99731.78;7188547;40;20320;31
2023/12/03 16:58:05;;;;;;;17.20;10.90;;;;;;;0.08;76.03;99713.59;7227658;40;20372;31
2023/12/03 17:03:27;;;;;;;15.05;10.15;;;;;;;-0.02;76.38;99721.22;7214604;40;20253;31
2023/12/03 17:08:47;;;;;;;13.35;9.20;;;;;;;-0.09;77.04;99724.31;7263179;40;20378;31
2023/12/03 17:14:22;;;;;;;14.13;9.30;;;;;;;-0.14;76.11;99726.37;7256436;40;20360;31
2023/12/03 17:19:57;;;;;;;12.80;8.80;;;;;;;-0.17;76.28;99721.22;7244891;40;20274;31
2023/12/03 17:30:38;;;;;;;12.70;9.20;;;;;;;-0.39;76.93;99718.91;7201250;40;20534;31
2023/12/03 17:41:19;;;;;;;12.53;9.33;;;;;;;-0.58;76.41;99700.56;7246001;40;20604;31
2023/12/03 17:46:52;;;;;;;18.00;11.60;;;;;;;-0.56;77.27;99711.06;7317823;39;20267;31
2023/12/03 17:57:18;;;;;;;13.25;8.65;;;;;;;-0.55;77.14;99697.75;7317208;39;20272;31
2023/12/03 18:02:54;;;;;;;11.37;8.23;;;;;;;-0.57;77.08;99691.66;7296509;39;20655;31
2023/12/03 18:13:32;;;;;;;15.10;9.77;;;;;;;-0.53;77.16;99681.78;7295218;39;20269;31
2023/12/03 18:19:06;;;;;;;14.90;9.80;;;;;;;-0.57;77.09;99678.44;7205040;40;20242;31
2023/12/03 18:24:27;;;;;;;15.80;9.60;;;;;;;-0.46;77.69;99680.50;7246578;40;20347;31
2023/12/03 18:29:47;;;;;;;12.87;9.30;;;;;;;-0.41;77.07;99672.31;7279747;40;20237;31
2023/12/03 18:35:22;;;;;;;12.67;8.97;;;;;;;-0.41;77.00;99670.50;7074470;40;21213;31
2023/12/03 18:40:58;;;;;;;12.17;8.73;;;;;;;-0.44;77.59;99688.37;7207663;40;20365;31
2023/12/03 18:51:32;;;;;;;15.07;10.03;;;;;;;-0.67;78.09;99664.03;7244056;40;20273;31
2023/12/03 19:02:00;;;;;;;14.03;8.97;;;;;;;-0.61;78.52;99645.13;7268231;40;20587;31
2023/12/03 19:12:37;;;;;;;13.20;8.87;;;;;;;-0.48;78.56;99646.16;7296424;39;20319;31
2023/12/03 19:18:12;;;;;;;11.17;7.97;;;;;;;-0.59;77.72;99637.13;7340880;39;20860;31
2023/12/03 19:28:53;;;;;;;12.50;8.75;;;;;;;-0.74;79.22;99625.59;7256999;40;20409;31
2023/12/03 19:39:18;;;;;;;10.85;8.00;;;;;;;-0.57;79.10;99614.09;7275793;40;20413;31
2023/12/03 19:44:52;;;;;;;12.95;8.80;;;;;;;-0.59;79.25;99610.66;7260044;40;20269;31
2023/12/03 19:50:28;;;;;;;13.75;8.40;;;;;;;-0.54;78.58;99593.59;7254785;40;20241;31
2023/12/03 19:56:04;;;;;;;11.63;7.93;;;;;;;-0.54;78.10;99583.00;7199448;40;20408;31
2023/12/03 20:06:45;;;;;;;11.23;7.77;;;;;;;-0.54;78.23;99564.47;7180137;40;20761;31
2023/12/03 20:12:03;;;;;;;13.40;8.10;;;;;;;-0.53;78.69;99566.16;7224889;40;20269;31
2023/12/03 20:17:38;;;;;;;11.73;7.80;;;;;;;-0.58;78.34;99568.22;7226302;40;20761;31
2023/12/03 20:23:11;;;;;;;12.35;8.45;;;;;;;-0.78;79.18;99562.34;7262353;39;20252;31
2023/12/03 20:28:29;;;;;;;15.70;9.57;;;;;;;-0.88;78.83;99577.06;7272495;40;20224;31
2023/12/03 20:33:49;;;;;;;14.83;10.07;;;;;;;-0.88;79.39;99562.03;7242199;40;20882;31
2023/12/03 20:39:22;;;;;;;15.15;9.70;;;;;;;-0.87;79.39;99547.00;7232392;40;20256;31
2023/12/03 20:44:40;;;;;;;15.75;9.90;;;;;;;-0.91;79.13;99547.16;7235233;40;20254;31
2023/12/03 20:50:02;;;;;;;16.67;9.97;;;;;;;-1.08;79.47;99544.63;7283388;40;20790;31
2023/12/03 20:55:32;;;;;;;14.00;9.25;;;;;;;-1.19;80.01;99540.88;7287226;40;20240;31
2023/12/03 21:00:52;;;;;;;15.35;10.80;;;;;;;-1.09;80.13;99548.19;7240656;40;20371;31
2023/12/03 21:06:27;;;;;;;15.80;10.00;;;;;;;-1.07;80.06;99535.75;7230425;40;20235;31
2023/12/03 21:12:01;;;;;;;14.20;9.50;;;;;;;-1.04;79.87;99517.06;7226772;40;22129;31
2023/12/03 21:17:36;;;;;;;15.00;9.50;;;;;;;-1.00;78.90;99504.50;7206701;40;20821;31
2023/12/03 21:23:11;;;;;;;14.30;9.30;;;;;;;-1.09;79.81;99495.31;7199479;40;20710;31
2023/12/03 21:28:48;;;;;;;13.50;8.95;;;;;;;-1.15;79.83;99479.81;7184331;40;20338;31
2023/12/03 21:34:08;;;;;;;14.30;9.60;;;;;;;-1.37;79.62;99490.72;7214097;40;20396;31
2023/12/03 21:39:43;;;;;;;13.10;8.43;;;;;;;-1.55;80.14;99490.87;7157109;40;20697;31
2023/12/03 21:45:20;;;;;;;14.33;8.80;;;;;;;-1.45;79.63;99485.00;7136950;40;21439;31
2023/12/03 21:50:55;;;;;;;14.27;9.07;;;;;;;-1.31;79.42;99486.00;7185453;40;20251;31
2023/12/03 21:56:15;;;;;;;12.25;9.20;;;;;;;-1.27;79.84;99475.19;7158010;40;20787;31
2023/12/03 22:01:51;;;;;;;13.50;8.87;;;;;;;-1.38;78.84;99481.09;7198058;40;20688;31
2023/12/03 22:07:11;;;;;;;13.60;8.30;;;;;;;-1.42;79.12;99463.69;7271784;40;20738;31
2023/12/03 22:12:46;;;;;;;11.63;7.93;;;;;;;-1.42;79.80;99460.19;7266359;40;20710;31
2023/12/03 22:18:22;;;;;;;11.15;8.00;;;;;;;-1.44;79.66;99440.91;7279050;40;20286;31
2023/12/03 22:23:57;;;;;;;12.55;8.45;;;;;;;-1.48;78.29;99442.88;7318576;39;20754;31
2023/12/03 22:29:32;;;;;;;14.30;9.15;;;;;;;-1.73;79.48;99442.53;7276899;39;20269;31
2023/12/03 22:35:08;;;;;;;11.67;8.37;;;;;;;-1.76;79.85;99434.78;7215317;40;20948;31
2023/12/03 22:40:28;;;;;;;14.57;9.47;;;;;;;-1.70;79.73;99428.28;7193878;40;20863;31
2023/12/03 22:46:04;;;;;;;14.70;9.00;;;;;;;-1.62;79.85;99426.06;7202462;40;21362;31
2023/12/03 22:51:40;;;;;;;14.10;9.00;;;;;;;-1.63;78.97;99403.25;7190383;40;20796;31
2023/12/03 22:57:00;;;;;;;13.67;9.47;;;;;;;-1.61;79.73;99404.00;7235424;40;21950;31
2023/12/03 23:07:41;;;;;;;12.55;8.40;;;;;;;-1.86;78.55;99376.31;7262386;40;20261;31
2023/12/03 23:12:59;;;;;;;12.80;8.50;;;;;;;-2.00;79.35;99380.66;7272372;39;21001;31
2023/12/03 23:18:31;;;;;;;15.27;8.80;;;;;;;-2.25;79.50;99373.22;7285173;39;20239;31
2023/12/03 23:24:04;;;;;;;13.70;8.65;;;;;;;-2.28;79.80;99354.91;7241287;40;20247;31
2023/12/03 23:29:22;;;;;;;10.80;7.50;;;;;;;-2.44;80.71;99351.38;7201266;40;20262;31
2023/12/03 23:34:42;;;;;;;14.60;8.90;;;;;;;-2.66;81.23;99349.03;7188319;40;20343;31
2023/12/03 23:40:11;;;;;;;14.97;8.33;;;;;;;-2.69;80.86;99350.97;7235338;40;20749;31
2023/12/03 23:45:32;;;;;;;14.07;8.80;;;;;;;-2.77;81.65;99349.62;7263607;40;20264;31
2023/12/03 23:50:50;;;;;;;15.73;9.40;;;;;;;-2.85;81.67;99343.84;7256913;40;20315;31
2023/12/03 23:56:24;;;;;;;14.44;8.98;;;;;;;-2.91;82.58;99330.16;7245582;40;20281;31
